Time;durP1;ratioP1;P1;durP2;ratioP2;P2;SDS_P1;SDS_P2;PMS_P1;PMS_P2;Temp;Humidity;BMP_temperature;BMP_pressure;BME280_temperature;BME280_humidity;BME280_pressure;Samples;Min_cycle;Max_cycle;Signal;HPM_P1;HPM_P2
2021/12/31 00:01:10;;;;;;;4.50;1.40;;;13.10;98.30;;;;;;5073776;28;20536;-82
2021/12/31 00:03:37;;;;;;;2.07;1.63;;;13.10;92.10;;;;;;5074128;28;20495;-82
2021/12/31 00:06:03;;;;;;;2.03;1.43;;;13.00;99.90;;;;;;5073465;28;20496;-83
2021/12/31 00:08:30;;;;;;;1.60;1.30;;;13.00;99.90;;;;;;5074352;28;20476;-79
2021/12/31 00:10:59;;;;;;;3.73;1.43;;;13.00;99.90;;;;;;5074393;28;20528;-83
2021/12/31 00:13:26;;;;;;;5.00;1.30;;;13.00;98.20;;;;;;5074076;28;20448;-83
2021/12/31 00:15:53;;;;;;;2.57;1.90;;;13.00;98.30;;;;;;5074163;28;20453;-83
2021/12/31 00:18:22;;;;;;;2.07;1.20;;;12.90;99.70;;;;;;5073588;28;20455;-82
2021/12/31 00:20:49;;;;;;;1.93;1.03;;;12.90;82.70;;;;;;5073591;28;20572;-83
2021/12/31 00:23:18;;;;;;;3.10;1.40;;;12.90;90.40;;;;;;5073119;28;20537;-83
2021/12/31 00:25:45;;;;;;;3.43;1.30;;;12.90;99.90;;;;;;5073753;28;20476;-83
2021/12/31 00:28:13;;;;;;;2.00;1.50;;;12.90;99.90;;;;;;5073360;28;20884;-83
2021/12/31 00:30:40;;;;;;;2.43;1.30;;;12.90;99.90;;;;;;5074041;28;20507;-83
2021/12/31 00:33:08;;;;;;;1.80;1.10;;;12.80;99.90;;;;;;5072892;28;20540;-83
2021/12/31 00:35:38;;;;;;;2.83;1.60;;;12.90;99.90;;;;;;5073435;28;20457;-83
2021/12/31 00:38:05;;;;;;;1.90;1.40;;;12.80;99.90;;;;;;5072822;28;21020;-83
2021/12/31 00:40:32;;;;;;;3.03;1.27;;;12.80;99.90;;;;;;5073196;28;20485;-83
2021/12/31 00:42:59;;;;;;;5.07;1.70;;;12.90;99.90;;;;;;5073025;28;20537;-83
2021/12/31 00:45:26;;;;;;;2.23;1.37;;;12.90;99.90;;;;;;5073735;28;20438;-83
2021/12/31 00:47:53;;;;;;;2.67;1.17;;;12.80;99.90;;;;;;5073282;28;20532;-83
2021/12/31 00:50:21;;;;;;;3.20;2.07;;;12.80;99.90;;;;;;5072657;28;20472;-83
2021/12/31 00:52:49;;;;;;;3.27;1.40;;;12.80;99.90;;;;;;5072438;28;20476;-83
2021/12/31 00:55:16;;;;;;;2.33;1.40;;;12.80;99.90;;;;;;5072854;28;20441;-83
2021/12/31 00:57:43;;;;;;;1.80;1.20;;;12.70;99.90;;;;;;5072895;28;20445;-83
2021/12/31 01:00:12;;;;;;;3.30;1.47;;;12.70;99.90;;;;;;5072512;28;21020;-83
2021/12/31 01:02:39;;;;;;;2.90;1.70;;;12.70;99.90;;;;;;5072424;28;20532;-83
2021/12/31 01:05:07;;;;;;;1.40;1.00;;;12.60;99.90;;;;;;5072730;28;20445;-83
2021/12/31 01:07:34;;;;;;;2.20;1.20;;;12.50;99.90;;;;;;5072903;28;20524;-83
2021/12/31 01:10:03;;;;;;;1.83;1.30;;;12.50;99.90;;;;;;5072494;28;20446;-80
2021/12/31 01:12:30;;;;;;;2.47;1.73;;;12.50;99.90;;;;;;5072617;28;20445;-78
2021/12/31 01:15:01;;;;;;;2.20;1.67;;;12.50;99.90;;;;;;5073269;28;20858;-83
2021/12/31 01:17:46;;;;;;;1.70;1.40;;;12.50;99.90;;;;;;5072769;28;20450;-83
2021/12/31 01:20:14;;;;;;;3.00;1.60;;;12.40;99.90;;;;;;5072364;28;20538;-82
2021/12/31 01:22:41;;;;;;;2.37;1.23;;;12.30;99.90;;;;;;5072788;28;20471;-84
2021/12/31 01:25:10;;;;;;;2.97;1.90;;;12.30;99.90;;;;;;5072011;28;20452;-83
2021/12/31 01:27:39;;;;;;;3.80;1.83;;;12.40;99.90;;;;;;5072705;28;20456;-83
2021/12/31 01:30:07;;;;;;;1.80;1.40;;;12.30;99.90;;;;;;5072167;28;20853;-83
2021/12/31 01:32:34;;;;;;;2.80;1.20;;;12.30;99.90;;;;;;5072206;28;20528;-84
2021/12/31 01:35:02;;;;;;;2.07;1.40;;;12.20;99.90;;;;;;5071982;28;20450;-83
2021/12/31 01:37:29;;;;;;;4.17;1.80;;;12.10;99.90;;;;;;5074337;28;20452;-82
2021/12/31 01:39:56;;;;;;;4.43;1.23;;;12.10;99.90;;;;;;5073308;28;20540;-83
2021/12/31 01:42:29;;;;;;;1.93;1.30;;;12.00;99.90;;;;;;5079824;28;20872;-83
2021/12/31 01:44:59;;;;;;;1.50;1.20;;;11.80;99.90;;;;;;5086863;28;20434;-83
2021/12/31 01:47:34;;;;;;;4.50;1.70;;;11.80;99.90;;;;;;5091853;28;20433;-81
2021/12/31 01:50:06;;;;;;;1.73;1.23;;;11.80;99.90;;;;;;5084025;28;20484;-80
2021/12/31 01:52:34;;;;;;;2.30;1.30;;;11.70;99.90;;;;;;5078965;28;20587;-82
2021/12/31 01:55:02;;;;;;;1.23;1.10;;;11.70;99.90;;;;;;5072004;28;20441;-81
2021/12/31 01:57:32;;;;;;;2.00;1.37;;;11.60;99.90;;;;;;5072362;28;20528;-83
2021/12/31 01:59:59;;;;;;;2.23;1.27;;;11.50;99.90;;;;;;5072328;28;20637;-83
2021/12/31 02:02:25;;;;;;;2.27;1.50;;;11.50;99.90;;;;;;5071558;28;20493;-83
2021/12/31 02:04:54;;;;;;;1.77;1.00;;;11.40;99.90;;;;;;5071954;28;20453;-83
2021/12/31 02:07:22;;;;;;;1.93;1.67;;;11.50;99.90;;;;;;5071297;28;20544;-83
2021/12/31 02:09:53;;;;;;;2.20;1.47;;;11.40;99.90;;;;;;5070891;28;20445;-81
2021/12/31 02:12:20;;;;;;;4.73;1.53;;;11.20;99.90;;;;;;5070638;28;20457;-82
2021/12/31 02:14:50;;;;;;;2.53;1.50;;;11.20;99.90;;;;;;5071539;28;20456;-82
2021/12/31 02:17:17;;;;;;;3.43;1.23;;;11.10;99.90;;;;;;5070918;28;20548;-83
2021/12/31 02:19:56;;;;;;;3.10;1.40;;;11.00;99.90;;;;;;5071565;28;20536;-82
2021/12/31 02:22:27;;;;;;;1.80;1.40;;;11.00;99.90;;;;;;5070860;28;20491;-82
2021/12/31 02:24:54;;;;;;;2.10;1.40;;;10.90;99.90;;;;;;5071719;28;20453;-82
2021/12/31 02:27:22;;;;;;;4.20;2.10;;;10.80;99.90;;;;;;5071151;28;20445;-83
2021/12/31 02:29:48;;;;;;;1.57;1.47;;;10.80;99.90;;;;;;5071662;28;20448;-82
2021/12/31 02:32:15;;;;;;;2.30;1.00;;;10.70;99.90;;;;;;5070571;28;20453;-82
2021/12/31 02:34:43;;;;;;;2.00;1.43;;;10.70;99.90;;;;;;5071699;28;20452;-78
2021/12/31 02:37:11;;;;;;;2.03;1.30;;;10.60;99.90;;;;;;5071206;28;20488;-83
2021/12/31 02:39:40;;;;;;;1.57;1.30;;;10.50;99.90;;;;;;5071439;28;20503;-82
2021/12/31 02:42:08;;;;;;;3.17;1.93;;;10.50;99.90;;;;;;5070242;28;20489;-82
2021/12/31 02:44:35;;;;;;;1.77;1.50;;;10.50;99.90;;;;;;5071259;28;20453;-82
2021/12/31 02:47:05;;;;;;;2.77;1.30;;;10.30;99.90;;;;;;5070903;28;20549;-81
2021/12/31 02:49:35;;;;;;;2.67;1.20;;;10.20;99.90;;;;;;5070979;28;20556;-82
2021/12/31 02:52:02;;;;;;;2.20;1.40;;;10.20;99.90;;;;;;5069701;28;20488;-82
2021/12/31 02:54:33;;;;;;;2.10;1.50;;;10.10;99.90;;;;;;5071025;28;20544;-82
2021/12/31 02:57:00;;;;;;;3.00;1.60;;;10.00;99.90;;;;;;5070737;28;20441;-71
2021/12/31 02:59:27;;;;;;;1.83;1.40;;;10.00;99.90;;;;;;5070974;28;20485;-82
2021/12/31 03:01:56;;;;;;;5.20;1.70;;;10.00;99.90;;;;;;5070460;28;20577;-82
2021/12/31 03:04:25;;;;;;;2.30;1.47;;;10.00;99.90;;;;;;5070334;28;20448;-81
2021/12/31 03:06:54;;;;;;;2.67;1.70;;;10.00;99.90;;;;;;5071123;28;20453;-83
2021/12/31 03:09:23;;;;;;;1.73;1.57;;;10.00;99.90;;;;;;5070539;28;20449;-82
2021/12/31 03:11:55;;;;;;;3.23;1.73;;;10.00;99.90;;;;;;5070730;28;20453;-83
2021/12/31 03:14:23;;;;;;;2.00;1.40;;;10.00;99.90;;;;;;5070272;28;20452;-82
2021/12/31 03:16:50;;;;;;;4.20;1.67;;;10.00;99.90;;;;;;5070897;28;20455;-83
2021/12/31 03:19:20;;;;;;;2.77;1.50;;;10.00;99.90;;;;;;5070488;28;20445;-83
2021/12/31 03:21:47;;;;;;;2.13;1.40;;;10.00;99.90;;;;;;5074034;28;20493;-83
2021/12/31 03:24:14;;;;;;;2.07;1.47;;;10.10;99.90;;;;;;5074076;28;20445;-83
2021/12/31 03:26:41;;;;;;;2.10;1.70;;;9.90;99.90;;;;;;5075000;28;20437;-83
2021/12/31 03:29:09;;;;;;;2.13;1.50;;;9.90;99.90;;;;;;5074284;28;20481;-82
2021/12/31 03:31:36;;;;;;;3.17;1.57;;;9.80;99.90;;;;;;5074244;28;20544;-83
2021/12/31 03:34:03;;;;;;;1.67;1.10;;;9.80;99.90;;;;;;5074068;28;20536;-83
2021/12/31 03:36:30;;;;;;;2.80;1.60;;;9.80;99.90;;;;;;5074697;28;20460;-78
2021/12/31 03:38:57;;;;;;;3.20;1.50;;;9.70;99.90;;;;;;5074745;28;20484;-83
2021/12/31 03:41:23;;;;;;;3.10;1.40;;;9.70;99.90;;;;;;5073291;28;21001;-83
2021/12/31 03:43:50;;;;;;;1.97;1.50;;;9.70;99.90;;;;;;5074617;28;20532;-83
2021/12/31 03:46:18;;;;;;;2.90;1.43;;;9.60;99.90;;;;;;5074156;28;20540;-83
2021/12/31 03:48:45;;;;;;;1.73;1.30;;;9.60;99.90;;;;;;5074202;28;20459;-82
2021/12/31 03:51:12;;;;;;;1.60;1.20;;;9.60;99.90;;;;;;5074239;28;20465;-71
2021/12/31 03:53:39;;;;;;;8.00;2.03;;;9.40;99.90;;;;;;5092327;28;20483;-82
2021/12/31 03:56:06;;;;;;;2.40;1.47;;;9.30;99.90;;;;;;5074423;28;20449;-82
2021/12/31 03:58:33;;;;;;;2.60;1.60;;;9.30;99.90;;;;;;5074707;28;20532;-82
2021/12/31 04:01:00;;;;;;;2.93;1.33;;;9.30;99.90;;;;;;5073567;28;20453;-72
2021/12/31 04:03:28;;;;;;;1.80;1.40;;;9.30;99.90;;;;;;5073891;28;20968;-82
2021/12/31 04:05:55;;;;;;;2.70;1.57;;;9.30;99.90;;;;;;5074430;28;20442;-82
2021/12/31 04:08:22;;;;;;;2.23;1.20;;;9.30;99.90;;;;;;5073673;28;20455;-81
2021/12/31 04:10:49;;;;;;;2.13;1.53;;;9.30;99.90;;;;;;5074158;28;20445;-80
2021/12/31 04:13:16;;;;;;;2.43;1.53;;;9.20;99.90;;;;;;5073191;28;20464;-82
2021/12/31 04:15:43;;;;;;;3.00;1.93;;;9.20;99.90;;;;;;5073914;28;20960;-81
2021/12/31 04:18:09;;;;;;;2.40;1.30;;;9.10;99.90;;;;;;5073664;28;20823;-82
2021/12/31 04:20:41;;;;;;;2.23;1.30;;;9.10;99.90;;;;;;5073672;28;20536;-82
2021/12/31 04:23:14;;;;;;;3.37;1.80;;;9.20;99.90;;;;;;5073014;28;20473;-82
2021/12/31 04:25:41;;;;;;;3.30;1.50;;;9.10;99.90;;;;;;5073871;28;20473;-82
2021/12/31 04:28:08;;;;;;;1.43;1.10;;;9.10;99.90;;;;;;5073144;28;20445;-81
2021/12/31 04:30:36;;;;;;;1.43;1.10;;;9.00;99.90;;;;;;5073894;28;20815;-82
2021/12/31 04:33:03;;;;;;;2.07;1.30;;;9.00;99.90;;;;;;5071930;28;20464;-81
2021/12/31 04:35:30;;;;;;;1.63;1.33;;;9.10;99.90;;;;;;5073844;28;20458;-77
2021/12/31 04:37:58;;;;;;;2.53;1.40;;;9.00;99.90;;;;;;5073732;28;20525;-82
2021/12/31 04:40:25;;;;;;;7.73;1.30;;;9.00;99.90;;;;;;5073503;28;20455;-82
2021/12/31 04:42:52;;;;;;;3.30;1.70;;;9.20;99.90;;;;;;5073215;28;20485;-82
2021/12/31 04:45:19;;;;;;;2.50;1.50;;;9.20;99.90;;;;;;5059430;28;20698;-82
2021/12/31 04:47:46;;;;;;;1.60;1.50;;;9.30;99.90;;;;;;5073473;28;20460;-80
2021/12/31 04:50:13;;;;;;;4.40;1.60;;;9.10;99.90;;;;;;5072615;28;20450;-81
2021/12/31 04:52:41;;;;;;;1.70;1.17;;;8.90;99.90;;;;;;5072978;28;20480;-82
2021/12/31 04:55:11;;;;;;;2.93;1.60;;;8.90;99.90;;;;;;5072560;28;20569;-82
2021/12/31 04:57:37;;;;;;;2.57;1.70;;;8.80;99.90;;;;;;5073258;28;20528;-82
2021/12/31 05:00:06;;;;;;;3.47;1.60;;;8.80;99.90;;;;;;5072720;28;20476;-82
2021/12/31 05:02:33;;;;;;;1.97;1.67;;;8.70;99.90;;;;;;5072607;28;20492;-81
2021/12/31 05:05:01;;;;;;;3.63;1.43;;;8.80;99.90;;;;;;5073259;28;20496;-74
2021/12/31 05:07:28;;;;;;;2.37;1.80;;;8.80;99.90;;;;;;5073294;28;20457;-81
2021/12/31 05:09:55;;;;;;;2.40;1.70;;;8.80;99.90;;;;;;5073018;28;20471;-82
2021/12/31 05:12:29;;;;;;;2.00;1.77;;;8.80;99.90;;;;;;5071579;28;20454;-80
2021/12/31 05:14:55;;;;;;;2.00;1.20;;;8.80;99.90;;;;;;5073177;28;20793;-82
2021/12/31 05:17:22;;;;;;;3.50;1.33;;;8.80;99.90;;;;;;5072369;28;20445;-81
2021/12/31 05:19:49;;;;;;;1.60;1.50;;;8.80;99.90;;;;;;5072884;28;20483;-82
2021/12/31 05:22:16;;;;;;;2.90;1.70;;;8.70;99.90;;;;;;5071773;28;20529;-82
2021/12/31 05:24:43;;;;;;;2.50;2.00;;;8.70;99.90;;;;;;5072309;28;20448;-80
2021/12/31 05:27:10;;;;;;;2.57;1.80;;;8.70;99.90;;;;;;5071914;28;20453;-81
2021/12/31 05:29:38;;;;;;;2.77;1.80;;;8.60;99.90;;;;;;5072997;28;20441;-81
2021/12/31 05:32:06;;;;;;;3.00;1.83;;;8.60;99.90;;;;;;5071795;28;20464;-82
2021/12/31 05:34:33;;;;;;;2.27;1.80;;;8.50;99.90;;;;;;5072626;28;20457;-81
2021/12/31 05:37:00;;;;;;;4.90;2.03;;;8.50;99.90;;;;;;5072405;28;20536;-71
2021/12/31 05:39:27;;;;;;;4.93;2.03;;;8.50;99.90;;;;;;5072168;28;20908;-81
2021/12/31 05:41:55;;;;;;;2.60;1.50;;;8.50;99.90;;;;;;5071944;28;20547;-82
2021/12/31 05:44:23;;;;;;;3.63;2.70;;;8.40;99.90;;;;;;5070923;28;20446;-81
2021/12/31 05:46:53;;;;;;;2.63;1.40;;;8.40;99.90;;;;;;5072137;28;20450;-81
2021/12/31 05:49:20;;;;;;;2.13;1.80;;;8.20;99.90;;;;;;5071660;28;21221;-81
2021/12/31 05:51:47;;;;;;;1.53;1.40;;;8.20;99.90;;;;;;5071116;28;20981;-81
2021/12/31 05:54:14;;;;;;;2.80;1.77;;;8.30;99.90;;;;;;5071609;28;20445;-81
2021/12/31 05:56:41;;;;;;;2.10;1.50;;;8.40;99.90;;;;;;5071888;28;21013;-81
2021/12/31 05:59:08;;;;;;;2.47;1.40;;;8.50;99.90;;;;;;5071616;28;20536;-81
2021/12/31 06:01:34;;;;;;;2.33;1.73;;;8.50;99.90;;;;;;5071805;28;20445;-82
2021/12/31 06:04:03;;;;;;;2.63;1.67;;;8.50;99.90;;;;;;5070976;28;20454;-81
2021/12/31 06:06:29;;;;;;;8.80;2.33;;;8.50;99.90;;;;;;5072135;28;20446;-80
2021/12/31 06:08:56;;;;;;;2.10;1.87;;;8.50;99.90;;;;;;5072101;28;20538;-82
2021/12/31 06:11:24;;;;;;;3.37;1.80;;;8.40;99.90;;;;;;5070782;28;20784;-81
2021/12/31 06:14:00;;;;;;;4.10;2.57;;;8.40;99.90;;;;;;5071875;28;20455;-81
2021/12/31 06:16:28;;;;;;;2.10;1.80;;;8.40;99.90;;;;;;5072140;28;20445;-81
2021/12/31 06:18:55;;;;;;;3.33;1.90;;;8.40;99.90;;;;;;5071619;28;20913;-81
2021/12/31 06:21:23;;;;;;;6.70;2.00;;;8.30;99.90;;;;;;5070407;28;20948;-81
2021/12/31 06:23:50;;;;;;;2.70;2.20;;;8.30;99.90;;;;;;5071478;28;20489;-81
2021/12/31 06:26:17;;;;;;;2.57;2.33;;;8.30;99.90;;;;;;5071026;28;20552;-81
2021/12/31 06:28:44;;;;;;;8.20;5.30;;;8.40;99.90;;;;;;5071634;28;20449;-80
2021/12/31 06:31:10;;;;;;;2.30;1.80;;;8.30;99.90;;;;;;5070442;28;20502;-81
2021/12/31 06:33:37;;;;;;;2.70;2.00;;;8.20;99.90;;;;;;5071435;28;20460;-81
2021/12/31 06:36:05;;;;;;;3.53;2.17;;;8.10;99.90;;;;;;5070773;28;20955;-81
2021/12/31 06:38:33;;;;;;;1.97;1.73;;;8.00;99.90;;;;;;5071480;28;20452;-80
2021/12/31 06:41:00;;;;;;;2.87;2.50;;;7.90;99.90;;;;;;5070248;28;20532;-70
2021/12/31 06:43:27;;;;;;;2.10;1.73;;;8.00;99.90;;;;;;5071553;28;20844;-81
2021/12/31 06:45:53;;;;;;;2.47;1.90;;;8.10;99.90;;;;;;5071683;28;20457;-81
2021/12/31 06:48:20;;;;;;;2.57;1.70;;;8.10;99.90;;;;;;5070636;28;20449;-81
2021/12/31 06:50:47;;;;;;;2.80;1.70;;;8.00;99.90;;;;;;5071358;28;20452;-81
2021/12/31 06:53:14;;;;;;;2.23;1.97;;;8.00;99.90;;;;;;5069859;28;20932;-80
2021/12/31 06:55:42;;;;;;;3.20;2.10;;;7.90;99.90;;;;;;5070738;28;20441;-80
2021/12/31 06:58:09;;;;;;;3.43;1.70;;;7.90;99.90;;;;;;5070710;28;20536;-81
2021/12/31 07:00:36;;;;;;;2.60;1.70;;;8.00;99.90;;;;;;5070946;28;20460;-82
2021/12/31 07:03:07;;;;;;;2.27;1.57;;;7.90;99.90;;;;;;5069889;28;20481;-82
2021/12/31 07:05:34;;;;;;;4.60;1.33;;;7.90;99.90;;;;;;5071247;28;20473;-80
2021/12/31 07:08:01;;;;;;;1.67;1.33;;;7.80;99.90;;;;;;5070763;28;20452;-80
2021/12/31 07:10:28;;;;;;;1.40;1.30;;;7.90;99.90;;;;;;5070768;28;20446;-81
2021/12/31 07:13:04;;;;;;;2.20;2.00;;;8.00;99.90;;;;;;5070947;28;20460;-81
2021/12/31 07:15:32;;;;;;;2.93;1.53;;;7.80;99.90;;;;;;5071187;28;20445;-81
2021/12/31 07:17:58;;;;;;;1.77;1.27;;;7.90;99.90;;;;;;5071276;28;20532;-81
2021/12/31 07:20:25;;;;;;;1.57;1.40;;;8.00;99.90;;;;;;5071209;28;20449;-82
2021/12/31 07:22:52;;;;;;;2.63;1.70;;;8.00;99.90;;;;;;5070779;28;20485;-81
2021/12/31 07:25:19;;;;;;;3.37;1.70;;;8.00;99.90;;;;;;5070189;28;20937;-82
2021/12/31 07:27:50;;;;;;;3.23;1.87;;;8.10;99.90;;;;;;5071363;28;20538;-82
2021/12/31 07:30:18;;;;;;;1.80;1.60;;;8.20;99.90;;;;;;5070401;28;20453;-81
2021/12/31 07:32:45;;;;;;;2.40;1.40;;;8.10;99.90;;;;;;5070368;28;20452;-81
2021/12/31 07:35:12;;;;;;;5.23;1.90;;;8.20;99.90;;;;;;5070192;28;20545;-81
2021/12/31 07:37:39;;;;;;;2.60;1.40;;;8.20;99.90;;;;;;5070797;28;20451;-81
2021/12/31 07:40:10;;;;;;;2.67;2.10;;;8.20;99.90;;;;;;5070063;28;20780;-81
2021/12/31 07:42:37;;;;;;;1.93;1.53;;;8.10;99.90;;;;;;5070557;28;20911;-81
2021/12/31 07:45:04;;;;;;;2.13;1.47;;;8.00;99.90;;;;;;5069923;28;20925;-81
2021/12/31 07:47:33;;;;;;;7.47;2.30;;;8.00;99.90;;;;;;5070925;28;20557;-82
2021/12/31 07:50:00;;;;;;;4.87;1.87;;;8.00;99.90;;;;;;5070887;28;20445;-80
2021/12/31 07:52:27;;;;;;;1.77;1.47;;;8.00;99.90;;;;;;5070428;28;20497;-83
2021/12/31 07:54:54;;;;;;;2.40;1.67;;;7.90;99.90;;;;;;5070615;28;20477;-81
2021/12/31 07:57:20;;;;;;;4.40;1.80;;;7.90;99.90;;;;;;5069941;28;20536;-81
2021/12/31 07:59:47;;;;;;;3.20;2.47;;;8.00;99.90;;;;;;5070634;28;20453;-81
2021/12/31 08:02:14;;;;;;;2.20;1.40;;;8.00;99.90;;;;;;5069637;28;20456;-81
2021/12/31 08:04:42;;;;;;;2.70;2.00;;;8.20;99.90;;;;;;5070820;28;20461;-81
2021/12/31 08:07:09;;;;;;;5.53;1.90;;;8.40;99.90;;;;;;5070915;28;20445;-77
2021/12/31 08:09:36;;;;;;;3.27;1.53;;;8.50;99.90;;;;;;5074350;28;20445;-81
2021/12/31 08:12:03;;;;;;;3.87;1.77;;;8.40;99.90;;;;;;5072555;28;20460;-80
2021/12/31 08:14:30;;;;;;;2.50;1.70;;;8.30;99.90;;;;;;5074134;28;20437;-77
2021/12/31 08:16:57;;;;;;;3.63;1.97;;;8.30;99.90;;;;;;5073922;28;20445;-81
2021/12/31 08:19:24;;;;;;;7.93;1.97;;;8.20;99.90;;;;;;5073185;28;20452;-81
2021/12/31 08:21:52;;;;;;;2.33;1.90;;;8.20;99.90;;;;;;5073594;28;20492;-81
2021/12/31 08:24:19;;;;;;;2.60;1.90;;;8.20;99.90;;;;;;5073220;28;20568;-81
2021/12/31 08:26:46;;;;;;;2.47;1.70;;;8.20;99.90;;;;;;5073696;28;20441;-81
2021/12/31 08:29:13;;;;;;;6.70;2.47;;;8.20;99.90;;;;;;5073215;28;20544;-75
2021/12/31 08:31:41;;;;;;;3.83;2.17;;;8.40;99.90;;;;;;5073533;28;20477;-81
2021/12/31 08:34:08;;;;;;;4.70;2.30;;;8.50;99.90;;;;;;5073029;28;20461;-81
2021/12/31 08:36:35;;;;;;;3.40;2.27;;;8.60;99.90;;;;;;5073442;28;20449;-81
2021/12/31 08:39:05;;;;;;;4.20;2.50;;;8.60;99.90;;;;;;5072941;28;20453;-83
2021/12/31 08:41:32;;;;;;;5.70;3.00;;;8.60;99.90;;;;;;5072696;28;20937;-80
2021/12/31 08:43:59;;;;;;;7.53;2.53;;;8.50;99.90;;;;;;5073327;28;20568;-83
2021/12/31 08:46:26;;;;;;;4.43;2.60;;;8.60;99.90;;;;;;5073297;28;20449;-82
2021/12/31 08:48:53;;;;;;;5.97;2.87;;;8.70;99.90;;;;;;5073303;28;20454;-83
2021/12/31 08:51:20;;;;;;;4.60;2.50;;;8.70;99.90;;;;;;5072035;28;20869;-83
2021/12/31 08:53:47;;;;;;;5.00;2.87;;;8.80;99.90;;;;;;5073708;28;20456;-82
2021/12/31 08:56:15;;;;;;;6.93;3.20;;;8.90;99.90;;;;;;5072482;28;20946;-83
2021/12/31 08:58:42;;;;;;;4.33;2.90;;;9.10;99.90;;;;;;5073232;28;20456;-81
2021/12/31 09:01:08;;;;;;;7.10;3.30;;;9.10;99.90;;;;;;5072127;28;20446;-83
2021/12/31 09:03:35;;;;;;;4.67;3.30;;;9.10;99.90;;;;;;5073318;28;20481;-83
2021/12/31 09:06:02;;;;;;;7.70;3.27;;;9.50;99.90;;;;;;5072815;28;20445;-83
2021/12/31 09:08:29;;;;;;;6.03;3.70;;;9.50;99.90;;;;;;5073261;28;20452;-83
2021/12/31 09:10:57;;;;;;;3.60;3.00;;;9.50;99.90;;;;;;5072587;28;20446;-82
2021/12/31 09:13:27;;;;;;;6.47;3.33;;;9.60;99.90;;;;;;5072244;28;21006;-83
2021/12/31 09:15:53;;;;;;;4.60;3.43;;;9.90;99.90;;;;;;5071708;28;20449;-82
2021/12/31 09:18:20;;;;;;;5.10;3.63;;;10.10;99.90;;;;;;5072158;28;20532;-82
2021/12/31 09:20:48;;;;;;;6.43;3.93;;;10.20;99.90;;;;;;5072259;28;20445;-82
2021/12/31 09:23:15;;;;;;;6.70;4.80;;;10.30;99.90;;;;;;5072355;28;20481;-83
2021/12/31 09:25:42;;;;;;;8.23;3.77;;;10.50;99.90;;;;;;5072774;28;20455;-83
2021/12/31 09:28:09;;;;;;;5.83;3.80;;;10.50;99.90;;;;;;5072359;28;20533;-81
2021/12/31 09:30:37;;;;;;;6.47;4.70;;;10.60;99.90;;;;;;5072751;28;20452;-83
2021/12/31 09:33:04;;;;;;;7.60;4.90;;;10.60;99.90;;;;;;5071975;28;20538;-82
2021/12/31 09:35:31;;;;;;;6.50;4.60;;;10.60;99.90;;;;;;5072222;28;20942;-80
2021/12/31 09:38:00;;;;;;;6.53;4.70;;;10.80;99.90;;;;;;5072640;28;20465;-82
2021/12/31 09:40:27;;;;;;;7.40;4.40;;;10.90;99.90;;;;;;5072220;28;20446;-82
2021/12/31 09:43:02;;;;;;;5.13;3.47;;;11.00;99.90;;;;;;5071871;28;20512;-82
2021/12/31 09:45:29;;;;;;;7.17;4.00;;;11.00;99.90;;;;;;5072562;28;20433;-83
2021/12/31 09:47:59;;;;;;;6.17;3.80;;;11.10;99.90;;;;;;5072271;28;20445;-83
2021/12/31 09:50:26;;;;;;;5.77;4.47;;;11.10;99.90;;;;;;5072679;28;20796;-83
2021/12/31 09:52:55;;;;;;;6.10;4.27;;;11.10;99.90;;;;;;5071927;28;20488;-85
2021/12/31 09:55:39;;;;;;;6.60;4.10;;;11.10;99.90;;;;;;5071707;28;20567;-83
2021/12/31 09:58:06;;;;;;;6.60;3.60;;;11.20;99.90;;;;;;5071119;28;20551;-81
2021/12/31 10:00:33;;;;;;;5.90;3.77;;;11.20;99.90;;;;;;5072234;28;20460;-81
2021/12/31 10:03:13;;;;;;;6.80;4.30;;;11.40;99.90;;;;;;5071045;28;21063;-72
2021/12/31 10:05:42;;;;;;;5.20;3.90;;;11.40;99.90;;;;;;5071941;28;20471;-82
2021/12/31 10:08:15;;;;;;;6.60;4.80;;;11.40;99.90;;;;;;5071553;28;20821;-82
2021/12/31 10:10:41;;;;;;;7.00;4.63;;;11.40;99.90;;;;;;5071500;28;20443;-82
2021/12/31 10:13:08;;;;;;;5.37;4.33;;;11.50;99.90;;;;;;5071317;28;20459;-79
2021/12/31 10:15:39;;;;;;;5.77;4.00;;;11.50;99.90;;;;;;5071566;28;20878;-81
2021/12/31 10:18:12;;;;;;;5.17;4.23;;;11.50;99.90;;;;;;5071293;28;20450;-82
2021/12/31 10:20:49;;;;;;;8.07;3.80;;;11.50;99.90;;;;;;5070947;28;20445;-82
2021/12/31 10:23:19;;;;;;;4.77;4.07;;;11.50;99.90;;;;;;5070769;28;20993;-82
2021/12/31 10:25:46;;;;;;;5.17;3.60;;;11.50;99.90;;;;;;5071957;28;20441;-82
2021/12/31 10:28:15;;;;;;;4.90;3.63;;;11.50;99.90;;;;;;5071053;28;20442;-81
2021/12/31 10:30:42;;;;;;;8.23;3.77;;;11.60;99.90;;;;;;5070612;28;20525;-82
2021/12/31 10:33:11;;;;;;;4.70;3.23;;;11.70;99.90;;;;;;5071262;28;20556;-75
2021/12/31 10:35:40;;;;;;;8.63;3.67;;;11.70;99.90;;;;;;5071506;28;20544;-82
2021/12/31 10:38:07;;;;;;;4.40;3.40;;;11.70;99.90;;;;;;5070952;28;20456;-82
2021/12/31 10:40:36;;;;;;;5.43;3.50;;;11.90;99.90;;;;;;5071125;28;20539;-80
2021/12/31 10:43:09;;;;;;;5.93;4.13;;;11.90;99.90;;;;;;5070824;28;20449;-82
2021/12/31 10:45:36;;;;;;;3.70;3.10;;;11.90;99.90;;;;;;5071191;28;20445;-82
2021/12/31 10:48:08;;;;;;;4.13;3.03;;;12.00;99.90;;;;;;5070741;28;20454;-81
2021/12/31 10:50:38;;;;;;;4.70;3.77;;;12.00;99.90;;;;;;5070531;28;20503;-82
2021/12/31 10:53:11;;;;;;;7.43;2.90;;;12.00;99.90;;;;;;5070281;28;20465;-82
2021/12/31 10:55:40;;;;;;;4.77;3.60;;;12.20;99.90;;;;;;5071396;28;20449;-82
2021/12/31 10:58:11;;;;;;;5.10;2.80;;;12.20;99.90;;;;;;5070916;28;20498;-82
2021/12/31 11:00:40;;;;;;;4.17;2.87;;;12.20;99.90;;;;;;5071066;28;20446;-85
2021/12/31 11:03:08;;;;;;;4.33;3.20;;;12.20;99.90;;;;;;5057284;28;20445;-82
2021/12/31 11:05:37;;;;;;;3.47;3.17;;;12.30;99.90;;;;;;5071322;28;20535;-81
2021/12/31 11:08:07;;;;;;;4.07;2.50;;;12.40;99.90;;;;;;5070754;28;20854;-82
2021/12/31 11:10:36;;;;;;;3.70;3.07;;;12.40;99.90;;;;;;5070920;28;20445;-77
2021/12/31 11:13:09;;;;;;;3.40;2.80;;;12.50;37.80;;;;;;5070734;28;20453;-81
2021/12/31 11:15:36;;;;;;;3.77;2.90;;;12.50;20.00;;;;;;5071221;28;20444;-81
2021/12/31 11:18:05;;;;;;;3.63;2.33;;;12.60;1.00;;;;;;5070646;28;20453;-82
2021/12/31 11:20:33;;;;;;;3.93;2.70;;;12.70;1.00;;;;;;5070336;28;20991;-81
2021/12/31 11:23:01;;;;;;;4.17;2.70;;;12.70;1.00;;;;;;5070758;28;20455;-71
2021/12/31 11:25:30;;;;;;;4.10;2.80;;;12.80;1.00;;;;;;5070880;28;20452;-81
2021/12/31 11:27:58;;;;;;;3.17;2.23;;;12.90;1.00;;;;;;5071237;28;20437;-83
2021/12/31 11:30:31;;;;;;;3.70;2.87;;;12.90;1.00;;;;;;5071017;28;20464;-82
2021/12/31 11:33:00;;;;;;;4.07;2.47;;;13.00;1.00;;;;;;5071332;28;20520;-83
2021/12/31 11:35:33;;;;;;;2.53;2.13;;;13.10;1.00;;;;;;5070724;28;20457;-83
2021/12/31 11:38:04;;;;;;;3.13;2.20;;;13.20;99.90;;;;;;5070788;28;20441;-72
2021/12/31 11:40:33;;;;;;;2.83;2.13;;;13.20;99.90;;;;;;5057044;28;20453;-81
2021/12/31 11:43:22;;;;;;;3.67;2.30;;;13.10;99.90;;;;;;5072695;28;20448;-71
2021/12/31 11:46:27;;;;;;;2.67;1.97;;;13.20;99.90;;;;;;5074501;28;20922;-83
2021/12/31 11:48:55;;;;;;;2.33;2.00;;;13.30;99.90;;;;;;5074642;28;20448;-82
2021/12/31 11:51:24;;;;;;;3.27;2.40;;;13.20;99.90;;;;;;5073230;28;20834;-82
2021/12/31 11:54:16;;;;;;;2.57;2.07;;;13.30;99.90;;;;;;5074761;28;20441;-83
2021/12/31 11:56:59;;;;;;;2.80;2.33;;;13.50;99.90;;;;;;5066916;28;20464;-81
2021/12/31 11:59:34;;;;;;;2.43;2.00;;;13.50;99.90;;;;;;5074735;28;20429;-83
2021/12/31 12:02:15;;;;;;;1.90;1.77;;;13.60;1.00;;;;;;5073151;28;20452;-81
2021/12/31 12:04:44;;;;;;;3.60;2.20;;;13.80;1.00;;;;;;5060935;28;20477;-83
2021/12/31 12:07:31;;;;;;;3.10;2.27;;;13.80;1.00;;;;;;5073672;28;20514;-82
2021/12/31 12:10:37;;;;;;;2.73;2.53;;;13.90;1.00;;;;;;5074443;28;20437;-82
2021/12/31 12:13:25;;;;;;;2.73;2.00;;;13.90;1.00;;;;;;5031591;28;20463;-82
2021/12/31 12:15:52;;;;;;;1.77;1.60;;;13.90;1.00;;;;;;5074275;28;20520;-83
2021/12/31 12:18:55;;;;;;;2.17;1.93;;;13.80;1.00;;;;;;5073777;28;20455;-82
2021/12/31 12:21:38;;;;;;;3.10;1.90;;;13.90;1.00;;;;;;5073921;28;20502;-83
2021/12/31 12:24:07;;;;;;;3.00;1.90;;;14.00;1.00;;;;;;5073338;28;20481;-82
2021/12/31 12:26:36;;;;;;;2.57;1.80;;;14.00;99.90;;;;;;5074183;28;20441;-82
2021/12/31 12:29:03;;;;;;;3.07;1.80;;;14.00;99.90;;;;;;5060533;28;20460;-82
2021/12/31 12:31:35;;;;;;;2.37;1.60;;;14.10;99.90;;;;;;5073757;28;20446;-78
2021/12/31 12:34:02;;;;;;;3.90;1.80;;;14.20;99.90;;;;;;5073288;28;20441;-82
2021/12/31 12:36:29;;;;;;;2.27;1.63;;;14.20;99.90;;;;;;5073946;28;20921;-82
2021/12/31 12:39:07;;;;;;;1.73;1.60;;;14.30;41.70;;;;;;5074067;28;20449;-83
2021/12/31 12:41:35;;;;;;;2.70;1.77;;;14.50;1.00;;;;;;5072990;28;20449;-82
2021/12/31 12:44:10;;;;;;;2.73;1.60;;;14.60;99.90;;;;;;5073296;28;20487;-82
2021/12/31 12:46:37;;;;;;;1.70;1.60;;;14.60;60.90;;;;;;5073429;28;20529;-82
2021/12/31 12:49:13;;;;;;;1.70;1.60;;;14.70;1.00;;;;;;5073282;28;20452;-82
2021/12/31 12:51:42;;;;;;;3.70;1.93;;;14.90;99.90;;;;;;5073069;28;20558;-82
2021/12/31 12:54:11;;;;;;;2.00;1.70;;;14.80;99.90;;;;;;5072332;28;20453;-81
2021/12/31 12:56:39;;;;;;;2.03;1.60;;;14.80;99.90;;;;;;5060641;28;21011;-81
2021/12/31 12:59:06;;;;;;;2.87;2.03;;;14.80;99.90;;;;;;5072926;28;20445;-81
2021/12/31 13:01:35;;;;;;;1.97;1.77;;;14.80;99.90;;;;;;5072970;28;20487;-81